Wetterdaten: Woche 22.02.16 - 28.02.16 (KW8)
Datum Zeit Temp. A. Feuchte A. Luftdruck Regen Wind Richtung Taupunkt Windchill Windben
22.02.2016 00:00 8,7 C 84 % 1015,4 hPa 0,0 l/m 5,8 km/h (2 Bft) O-NO 6,1 C 8,3 C 11,5 km/h (2 Bft)
22.02.2016 01:00 9,2 C 82 % 1014,6 hPa 0,0 l/m 6,8 km/h (2 Bft) O-NO 6,3 C 8,2 C 13,1 km/h (3 Bft)
22.02.2016 02:00 9,3 C 83 % 1014,3 hPa 0,0 l/m 7,2 km/h (2 Bft) O-NO 6,7 C 8,3 C 13,6 km/h (3 Bft)
22.02.2016 03:00 9,1 C 85 % 1013,9 hPa 0,0 l/m 6,1 km/h (2 Bft) O-NO 6,8 C 8,4 C 14,4 km/h (3 Bft)
22.02.2016 04:00 9,0 C 86 % 1014,0 hPa 0,0 l/m 7,7 km/h (2 Bft) O 6,9 C 8,0 C 18,1 km/h (3 Bft)
22.02.2016 05:00 9,0 C 87 % 1014,0 hPa 0,0 l/m 5,5 km/h (2 Bft) O-NO 6,9 C 8,8 C 14,2 km/h (3 Bft)
22.02.2016 06:00 8,8 C 88 % 1013,9 hPa 0,0 l/m 5,8 km/h (2 Bft) O-NO 7,0 C 8,7 C 14,6 km/h (3 Bft)
22.02.2016 07:00 8,6 C 88 % 1013,6 hPa 0,0 l/m 5,6 km/h (2 Bft) O-NO 6,8 C 8,5 C 15,3 km/h (3 Bft)
22.02.2016 08:00 9,2 C 83 % 1013,8 hPa 0,0 l/m 6,3 km/h (2 Bft) O-NO 6,5 C 8,9 C 15,5 km/h (3 Bft)
22.02.2016 09:00 10,0 C 78 % 1013,7 hPa 0,0 l/m 7,5 km/h (2 Bft) O-NO 6,3 C 9,1 C 15,6 km/h (3 Bft)
22.02.2016 10:00 10,8 C 71 % 1013,3 hPa 0,0 l/m 10,3 km/h (2 Bft) O-NO 5,7 C 8,3 C 24,8 km/h (4 Bft)
22.02.2016 11:00 11,9 C 65 % 1013,0 hPa 0,0 l/m 9,2 km/h (2 Bft) O-NO 5,6 C 10,1 C 20,0 km/h (4 Bft)
22.02.2016 12:00 12,5 C 63 % 1012,6 hPa 0,0 l/m 8,6 km/h (2 Bft) O-NO 5,6 C 11,1 C 19,4 km/h (3 Bft)
22.02.2016 13:00 12,5 C 58 % 1011,7 hPa 0,0 l/m 10,6 km/h (2 Bft) O-NO 4,5 C 10,1 C 23,6 km/h (4 Bft)
22.02.2016 14:00 12,3 C 58 % 1010,9 hPa 0,0 l/m 8,1 km/h (2 Bft) O 4,3 C 11,3 C 16,8 km/h (3 Bft)
22.02.2016 15:00 12,3 C 55 % 1010,5 hPa 0,0 l/m 8,5 km/h (2 Bft) O-NO 3,6 C 11,0 C 18,2 km/h (3 Bft)
22.02.2016 16:00 11,9 C 57 % 1010,4 hPa 0,0 l/m 6,0 km/h (2 Bft) O-NO 3,6 C 11,7 C 16,6 km/h (3 Bft)
22.02.2016 17:00 10,1 C 67 % 1010,1 hPa 0,0 l/m 4,7 km/h (1 Bft) O-NO 4,2 C 9,9 C 12,4 km/h (2 Bft)
22.02.2016 18:00 8,8 C 74 % 1010,6 hPa 0,0 l/m 3,9 km/h (1 Bft) O 4,4 C 8,6 C 9,6 km/h (2 Bft)
22.02.2016 19:00 8,1 C 76 % 1010,9 hPa 0,0 l/m 3,4 km/h (1 Bft) O-NO 4,2 C 8,1 C 11,3 km/h (2 Bft)
22.02.2016 20:00 8,0 C 77 % 1010,7 hPa 0,0 l/m 5,4 km/h (2 Bft) O-NO 4,3 C 8,0 C 12,6 km/h (2 Bft)
22.02.2016 21:00 8,0 C 81 % 1010,9 hPa 0,0 l/m 5,9 km/h (2 Bft) O-NO 4,9 C 7,4 C 10,7 km/h (2 Bft)
22.02.2016 22:00 7,8 C 80 % 1011,2 hPa 0,0 l/m 5,4 km/h (2 Bft) O 4,7 C 7,5 C 10,9 km/h (2 Bft)
22.02.2016 23:00 7,8 C 80 % 1011,0 hPa 0,0 l/m 7,9 km/h (2 Bft) O-NO 4,5 C 6,5 C 14,7 km/h (3 Bft)
23.02.2016 00:00 7,7 C 81 % 1010,9 hPa 0,0 l/m 7,7 km/h (2 Bft) O-NO 4,6 C 6,6 C 16,6 km/h (3 Bft)
23.02.2016 01:00 7,5 C 82 % 1010,7 hPa 0,0 l/m 7,4 km/h (2 Bft) NO 4,6 C 6,6 C 18,2 km/h (3 Bft)
23.02.2016 02:00 7,3 C 83 % 1010,2 hPa 0,0 l/m 7,9 km/h (2 Bft) NO 4,5 C 6,1 C 19,3 km/h (3 Bft)
23.02.2016 03:00 7,1 C 83 % 1009,6 hPa 0,0 l/m 8,6 km/h (2 Bft) O-NO 4,4 C 5,5 C 19,0 km/h (3 Bft)
23.02.2016 04:00 7,0 C 84 % 1009,2 hPa 0,0 l/m 9,8 km/h (2 Bft) NO 4,5 C 4,5 C 24,5 km/h (4 Bft)
23.02.2016 05:00 6,3 C 91 % 1009,1 hPa 2,0 l/m 9,4 km/h (2 Bft) O-NO 5,0 C 4,0 C 20,2 km/h (4 Bft)
23.02.2016 06:00 6,1 C 93 % 1009,0 hPa 3,0 l/m 7,6 km/h (2 Bft) NO 5,0 C 4,9 C 16,4 km/h (3 Bft)
23.02.2016 07:00 5,8 C 94 % 1008,7 hPa 2,5 l/m 7,0 km/h (2 Bft) NO 5,0 C 5,2 C 17,0 km/h (3 Bft)
23.02.2016 08:00 5,9 C 94 % 1008,8 hPa 2,0 l/m 6,2 km/h (2 Bft) O-NO 5,0 C 5,5 C 15,9 km/h (3 Bft)
23.02.2016 09:00 5,8 C 93 % 1008,9 hPa 1,3 l/m 7,7 km/h (2 Bft) NO 4,8 C 4,6 C 17,3 km/h (3 Bft)
23.02.2016 10:00 5,7 C 93 % 1008,8 hPa 1,8 l/m 5,9 km/h (2 Bft) NO 4,7 C 5,6 C 15,7 km/h (3 Bft)
23.02.2016 11:00 6,1 C 93 % 1008,8 hPa 1,0 l/m 7,5 km/h (2 Bft) O-NO 5,0 C 4,9 C 18,0 km/h (3 Bft)
23.02.2016 12:00 5,5 C 91 % 1009,2 hPa 1,3 l/m 5,4 km/h (1 Bft) O 4,3 C 4,9 C 11,7 km/h (2 Bft)
23.02.2016 13:00 3,0 C 92 % 1010,4 hPa 1,5 l/m 2,1 km/h (1 Bft) NO 1,9 C 3,0 C 5,7 km/h (2 Bft)
23.02.2016 14:00 1,4 C 93 % 1011,6 hPa 1,0 l/m 2,4 km/h (1 Bft) O 0,5 C 1,4 C 6,4 km/h (2 Bft)
23.02.2016 15:00 0,9 C 95 % 1012,6 hPa 0,8 l/m 1,6 km/h (1 Bft) O 0,1 C 0,9 C 3,5 km/h (1 Bft)
23.02.2016 16:00 0,8 C 95 % 1014,0 hPa 0,3 l/m 1,9 km/h (1 Bft) O 0,1 C 0,8 C 4,8 km/h (1 Bft)
23.02.2016 17:00 0,7 C 94 % 1015,4 hPa 0,3 l/m 3,0 km/h (1 Bft) O -0,2 C 0,7 C 8,7 km/h (2 Bft)
23.02.2016 18:00 0,6 C 93 % 1016,4 hPa 0,0 l/m 2,4 km/h (1 Bft) O -0,3 C 0,6 C 7,2 km/h (2 Bft)
23.02.2016 19:00 0,2 C 93 % 1017,6 hPa 0,0 l/m 0,9 km/h (0 Bft) O-NO -0,7 C 0,2 C 3,2 km/h (1 Bft)
23.02.2016 20:00 0,1 C 94 % 1018,5 hPa 0,0 l/m 1,6 km/h (1 Bft) O -0,8 C 0,1 C 4,2 km/h (1 Bft)
23.02.2016 21:00 0,2 C 94 % 1019,0 hPa 0,0 l/m 2,2 km/h (1 Bft) O -0,7 C 0,2 C 5,4 km/h (1 Bft)
23.02.2016 22:00 0,3 C 95 % 1019,5 hPa 0,0 l/m 1,8 km/h (1 Bft) NO -0,4 C 0,3 C 4,4 km/h (1 Bft)
23.02.2016 23:00 0,4 C 95 % 1019,9 hPa 0,0 l/m 2,4 km/h (1 Bft) NO -0,3 C 0,4 C 5,1 km/h (1 Bft)
24.02.2016 00:00 0,4 C 95 % 1020,0 hPa 0,0 l/m 1,9 km/h (1 Bft) NO -0,3 C 0,4 C 4,4 km/h (1 Bft)
24.02.2016 01:00 0,2 C 95 % 1020,1 hPa 0,0 l/m 3,0 km/h (1 Bft) O-NO -0,5 C 0,2 C 7,4 km/h (2 Bft)
24.02.2016 02:00 0,2 C 95 % 1020,0 hPa 0,0 l/m 3,4 km/h (1 Bft) O-NO -0,5 C 0,2 C 7,1 km/h (2 Bft)
24.02.2016 03:00 0,1 C 94 % 1020,0 hPa 0,0 l/m 2,3 km/h (1 Bft) O -0,7 C 0,1 C 5,4 km/h (1 Bft)
24.02.2016 04:00 -0,0 C 96 % 1019,9 hPa 0,0 l/m 0,1 km/h (0 Bft) O-NO -0,7 C -0,0 C 1,1 km/h (0 Bft)
24.02.2016 05:00 0,2 C 95 % 1020,0 hPa 0,0 l/m 1,9 km/h (1 Bft) NO -0,5 C 0,2 C 4,5 km/h (1 Bft)
24.02.2016 06:00 0,2 C 95 % 1019,9 hPa 0,0 l/m 1,7 km/h (1 Bft) NO -0,6 C 0,2 C 3,3 km/h (1 Bft)
24.02.2016 07:00 0,2 C 94 % 1019,9 hPa 0,0 l/m 1,0 km/h (0 Bft) NO -0,7 C 0,2 C 2,4 km/h (1 Bft)
24.02.2016 08:00 0,8 C 93 % 1020,2 hPa 0,0 l/m 2,5 km/h (1 Bft) O-NO -0,2 C 0,8 C 4,4 km/h (1 Bft)
24.02.2016 09:00 1,3 C 91 % 1020,4 hPa 0,3 l/m 2,9 km/h (1 Bft) O -0,1 C 1,3 C 5,6 km/h (2 Bft)
24.02.2016 10:00 2,1 C 85 % 1020,1 hPa 0,0 l/m 2,7 km/h (1 Bft) NO -0,1 C 2,1 C 5,7 km/h (2 Bft)
24.02.2016 11:00 3,8 C 72 % 1019,4 hPa 0,0 l/m 3,4 km/h (1 Bft) O-NO -0,7 C 3,8 C 6,9 km/h (2 Bft)
24.02.2016 12:00 4,4 C 65 % 1018,8 hPa 0,0 l/m 3,0 km/h (1 Bft) O -1,6 C 4,4 C 6,6 km/h (2 Bft)
24.02.2016 13:00 5,3 C 64 % 1017,7 hPa 0,0 l/m 3,0 km/h (1 Bft) NO -1,1 C 5,3 C 7,1 km/h (2 Bft)
24.02.2016 14:00 4,3 C 64 % 1016,5 hPa 0,0 l/m 2,7 km/h (1 Bft) NO -2,0 C 4,3 C 5,6 km/h (2 Bft)
24.02.2016 15:00 3,4 C 67 % 1015,8 hPa 0,0 l/m 2,3 km/h (1 Bft) N-NO -2,2 C 3,4 C 4,4 km/h (1 Bft)
24.02.2016 16:00 3,3 C 71 % 1015,1 hPa 0,0 l/m 1,8 km/h (1 Bft) NO -1,5 C 3,3 C 4,4 km/h (1 Bft)
24.02.2016 17:00 2,5 C 79 % 1014,4 hPa 0,0 l/m 1,0 km/h (0 Bft) W-NW -0,8 C 2,5 C 2,8 km/h (1 Bft)
24.02.2016 18:00 1,3 C 89 % 1014,2 hPa 0,0 l/m 0,8 km/h (0 Bft) W-NW -0,2 C 1,3 C 2,2 km/h (1 Bft)
24.02.2016 19:00 0,7 C 92 % 1013,9 hPa 0,0 l/m 0,2 km/h (0 Bft) W-NW -0,4 C 0,7 C 1,2 km/h (1 Bft)
24.02.2016 20:00 0,8 C 91 % 1013,4 hPa 0,0 l/m 1,9 km/h (1 Bft) O -0,6 C 0,8 C 4,7 km/h (1 Bft)
24.02.2016 21:00 0,7 C 90 % 1013,0 hPa 0,0 l/m 2,6 km/h (1 Bft) O-NO -0,7 C 0,7 C 5,7 km/h (2 Bft)
24.02.2016 22:00 0,2 C 94 % 1012,5 hPa 0,0 l/m 1,5 km/h (1 Bft) O -0,7 C 0,2 C 3,5 km/h (1 Bft)
24.02.2016 23:00 -0,1 C 95 % 1011,9 hPa 0,0 l/m 0,1 km/h (0 Bft) O -0,9 C -0,1 C 0,9 km/h (0 Bft)
25.02.2016 00:00 -0,2 C 95 % 1011,5 hPa 0,0 l/m 0,1 km/h (0 Bft) N -0,9 C -0,2 C 0,9 km/h (0 Bft)
25.02.2016 01:00 -0,4 C 95 % 1011,0 hPa 0,0 l/m 0,1 km/h (0 Bft) W-SW -1,0 C -0,4 C 0,5 km/h (0 Bft)
25.02.2016 02:00 -0,5 C 96 % 1010,6 hPa 0,0 l/m 0,0 km/h (0 Bft) W-SW -1,0 C -0,5 C 0,0 km/h (0 Bft)
25.02.2016 03:00 -0,4 C 96 % 1010,3 hPa 0,0 l/m 0,0 km/h (0 Bft) W-SW -1,0 C -0,4 C 0,0 km/h (0 Bft)
25.02.2016 04:00 -0,5 C 96 % 1010,0 hPa 0,0 l/m 0,0 km/h (0 Bft) W-SW -1,0 C -0,5 C 0,0 km/h (0 Bft)
25.02.2016 05:00 -0,5 C 96 % 1010,3 hPa 0,0 l/m 0,0 km/h (0 Bft) W-SW -1,1 C -0,5 C 0,0 km/h (0 Bft)
25.02.2016 06:00 -0,5 C 96 % 1010,3 hPa 0,0 l/m 0,0 km/h (0 Bft) W-SW -1,1 C -0,5 C 0,0 km/h (0 Bft)
25.02.2016 07:00 -0,6 C 96 % 1010,7 hPa 0,0 l/m 0,0 km/h (0 Bft) W-SW -1,1 C -0,6 C 0,0 km/h (0 Bft)
25.02.2016 08:00 -0,3 C 96 % 1011,4 hPa 0,0 l/m 0,0 km/h (0 Bft) W-SW -1,0 C -0,3 C 0,1 km/h (0 Bft)
25.02.2016 09:00 0,1 C 94 % 1011,9 hPa 0,0 l/m 1,0 km/h (0 Bft) W -0,7 C 0,1 C 2,8 km/h (1 Bft)
25.02.2016 10:00 0,4 C 93 % 1012,4 hPa 0,0 l/m 1,9 km/h (1 Bft) NW -0,6 C 0,4 C 5,1 km/h (1 Bft)
25.02.2016 11:00 0,8 C 92 % 1012,8 hPa 0,0 l/m 1,6 km/h (1 Bft) W-NW -0,4 C 0,8 C 4,1 km/h (1 Bft)
25.02.2016 12:00 1,1 C 91 % 1013,1 hPa 0,0 l/m 1,3 km/h (1 Bft) W -0,2 C 1,1 C 3,5 km/h (1 Bft)
25.02.2016 13:00 1,3 C 89 % 1013,3 hPa 2,0 l/m 1,1 km/h (1 Bft) W -0,3 C 1,3 C 3,3 km/h (1 Bft)
25.02.2016 14:00 1,1 C 90 % 1013,6 hPa 0,5 l/m 0,4 km/h (0 Bft) W-SW -0,4 C 1,1 C 2,1 km/h (1 Bft)
25.02.2016 15:00 1,0 C 90 % 1013,9 hPa 0,5 l/m 0,3 km/h (0 Bft) W-SW -0,4 C 1,0 C 1,4 km/h (1 Bft)
25.02.2016 16:00 1,4 C 89 % 1014,2 hPa 1,0 l/m 0,4 km/h (0 Bft) O-SO -0,3 C 1,4 C 1,6 km/h (1 Bft)
25.02.2016 17:00 0,8 C 91 % 1014,6 hPa 0,5 l/m 0,1 km/h (0 Bft) O-SO -0,6 C 0,8 C 0,3 km/h (0 Bft)
25.02.2016 18:00 0,1 C 93 % 1015,0 hPa 0,0 l/m 0,0 km/h (0 Bft) O-SO -0,9 C 0,1 C 0,3 km/h (0 Bft)
25.02.2016 19:00 -0,6 C 95 % 1015,7 hPa 0,3 l/m 0,0 km/h (0 Bft) O-SO -1,2 C -0,6 C 0,5 km/h (0 Bft)
25.02.2016 20:00 -0,4 C 96 % 1016,0 hPa 0,0 l/m 0,2 km/h (0 Bft) O-SO -0,9 C -0,4 C 0,8 km/h (0 Bft)
25.02.2016 21:00 -0,4 C 96 % 1016,3 hPa 0,0 l/m 0,5 km/h (0 Bft) O-SO -0,9 C -0,4 C 1,6 km/h (1 Bft)
25.02.2016 22:00 -0,8 C 94 % 1016,6 hPa 0,0 l/m 0,1 km/h (0 Bft) O-NO -1,6 C -0,8 C 0,5 km/h (0 Bft)
25.02.2016 23:00 -1,4 C 95 % 1016,4 hPa 0,0 l/m 0,0 km/h (0 Bft) O-NO -2,0 C -1,4 C 0,0 km/h (0 Bft)
26.02.2016 00:00 -1,9 C 95 % 1016,4 hPa 0,0 l/m 0,1 km/h (0 Bft) O-NO -2,6 C -1,9 C 0,6 km/h (0 Bft)
26.02.2016 01:00 -2,3 C 96 % 1016,5 hPa 0,0 l/m 0,1 km/h (0 Bft) O-NO -2,9 C -2,3 C 1,2 km/h (1 Bft)
26.02.2016 02:00 -2,6 C 96 % 1016,0 hPa 0,0 l/m 0,1 km/h (0 Bft) O-NO -3,1 C -2,6 C 0,9 km/h (0 Bft)
26.02.2016 03:00 -2,8 C 97 % 1015,8 hPa 0,0 l/m 0,4 km/h (0 Bft) O-NO -3,2 C -2,8 C 1,7 km/h (1 Bft)
26.02.2016 04:00 -2,9 C 97 % 1015,6 hPa 0,0 l/m 0,1 km/h (0 Bft) O-NO -3,3 C -2,9 C 1,1 km/h (0 Bft)
26.02.2016 05:00 -3,0 C 97 % 1015,4 hPa 0,0 l/m 0,2 km/h (0 Bft) O-NO -3,4 C -3,0 C 1,0 km/h (0 Bft)
26.02.2016 06:00 -3,2 C 96 % 1015,0 hPa 0,0 l/m 0,3 km/h (0 Bft) O-NO -3,7 C -3,2 C 1,1 km/h (1 Bft)
26.02.2016 07:00 -3,8 C 97 % 1014,6 hPa 0,0 l/m 0,3 km/h (0 Bft) O-NO -4,2 C -3,8 C 1,5 km/h (1 Bft)
26.02.2016 08:00 -4,1 C 96 % 1014,7 hPa 0,0 l/m 1,1 km/h (0 Bft) O-NO -4,7 C -4,1 C 3,4 km/h (1 Bft)
26.02.2016 09:00 -3,6 C 96 % 1014,5 hPa 0,0 l/m 0,9 km/h (0 Bft) W-SW -4,1 C -3,6 C 2,7 km/h (1 Bft)
26.02.2016 10:00 -1,9 C 95 % 1014,1 hPa 0,3 l/m 1,2 km/h (1 Bft) W -2,7 C -1,9 C 3,7 km/h (1 Bft)
26.02.2016 11:00 0,7 C 85 % 1013,6 hPa 1,3 l/m 2,7 km/h (1 Bft) W-NW -1,5 C 0,7 C 5,6 km/h (2 Bft)
26.02.2016 12:00 1,7 C 80 % 1013,1 hPa 1,3 l/m 3,5 km/h (1 Bft) W-NW -1,4 C 1,7 C 7,2 km/h (2 Bft)
26.02.2016 13:00 2,4 C 75 % 1012,3 hPa 1,3 l/m 3,4 km/h (1 Bft) NW -1,6 C 2,4 C 7,5 km/h (2 Bft)
26.02.2016 14:00 2,3 C 71 % 1011,4 hPa 1,0 l/m 2,5 km/h (1 Bft) W-NW -2,4 C 2,3 C 6,2 km/h (2 Bft)
26.02.2016 15:00 2,3 C 69 % 1010,6 hPa 0,5 l/m 2,8 km/h (1 Bft) W-SW -2,7 C 2,3 C 6,5 km/h (2 Bft)
26.02.2016 16:00 2,2 C 69 % 1009,8 hPa 0,3 l/m 2,7 km/h (1 Bft) NW -2,9 C 2,2 C 7,0 km/h (2 Bft)
26.02.2016 17:00 1,1 C 77 % 1009,3 hPa 0,0 l/m 0,9 km/h (0 Bft) W-NW -2,5 C 1,1 C 2,8 km/h (1 Bft)
26.02.2016 18:00 -0,0 C 86 % 1009,2 hPa 0,0 l/m 0,1 km/h (0 Bft) N-NW -2,1 C -0,0 C 1,1 km/h (1 Bft)
26.02.2016 19:00 -1,7 C 91 % 1009,0 hPa 0,0 l/m 0,0 km/h (0 Bft) N-NW -2,9 C -1,7 C 0,7 km/h (0 Bft)
26.02.2016 20:00 -2,5 C 93 % 1008,7 hPa 0,0 l/m 0,1 km/h (0 Bft) N-NW -3,5 C -2,5 C 0,6 km/h (0 Bft)
26.02.2016 21:00 -3,1 C 93 % 1008,6 hPa 0,0 l/m 0,0 km/h (0 Bft) N-NW -4,0 C -3,1 C 0,1 km/h (0 Bft)
26.02.2016 22:00 -3,8 C 94 % 1008,2 hPa 0,0 l/m 0,0 km/h (0 Bft) N-NW -4,6 C -3,8 C 0,4 km/h (0 Bft)
26.02.2016 23:00 -4,2 C 95 % 1007,7 hPa 0,0 l/m 0,0 km/h (0 Bft) N-NW -4,9 C -4,2 C 0,1 km/h (0 Bft)
27.02.2016 00:00 -4,4 C 95 % 1007,4 hPa 0,0 l/m 0,0 km/h (0 Bft) N-NW -5,1 C -4,4 C 0,1 km/h (0 Bft)
27.02.2016 01:00 -5,1 C 95 % 1007,2 hPa 0,0 l/m 0,0 km/h (0 Bft) N-NW -5,8 C -5,1 C 0,0 km/h (0 Bft)
27.02.2016 02:00 -6,0 C 95 % 1006,8 hPa 0,0 l/m 0,0 km/h (0 Bft) N-NW -6,8 C -6,0 C 0,0 km/h (0 Bft)
27.02.2016 03:00 -6,5 C 95 % 1006,5 hPa 0,0 l/m 0,0 km/h (0 Bft) N-NW -7,2 C -6,5 C 0,0 km/h (0 Bft)
27.02.2016 04:00 -7,0 C 95 % 1006,1 hPa 0,0 l/m 0,0 km/h (0 Bft) N-NW -7,8 C -7,0 C 0,0 km/h (0 Bft)
27.02.2016 05:00 -7,4 C 94 % 1005,9 hPa 0,0 l/m 0,0 km/h (0 Bft) N-NW -8,1 C -7,4 C 0,2 km/h (0 Bft)
27.02.2016 06:00 -7,6 C 94 % 1006,0 hPa 0,0 l/m 0,0 km/h (0 Bft) N-NW -8,4 C -7,6 C 0,2 km/h (0 Bft)
27.02.2016 07:00 -7,9 C 94 % 1006,3 hPa 0,0 l/m 0,0 km/h (0 Bft) N-NW -8,7 C -7,9 C 0,0 km/h (0 Bft)
27.02.2016 08:00 -5,8 C 94 % 1006,5 hPa 0,0 l/m 0,1 km/h (0 Bft) N-NW -6,6 C -5,8 C 1,1 km/h (1 Bft)
27.02.2016 09:00 -3,3 C 91 % 1006,7 hPa 0,3 l/m 1,3 km/h (1 Bft) N-NW -4,6 C -3,3 C 3,0 km/h (1 Bft)
27.02.2016 10:00 0,1 C 82 % 1006,5 hPa 0,3 l/m 2,0 km/h (1 Bft) SW -2,6 C 0,1 C 5,2 km/h (1 Bft)
27.02.2016 11:00 2,5 C 75 % 1006,4 hPa 0,5 l/m 2,7 km/h (1 Bft) NW -1,5 C 2,5 C 6,1 km/h (2 Bft)
27.02.2016 12:00 3,7 C 71 % 1006,3 hPa 0,5 l/m 3,6 km/h (1 Bft) W-NW -1,0 C 3,7 C 7,5 km/h (2 Bft)
27.02.2016 13:00 5,7 C 67 % 1005,8 hPa 0,3 l/m 3,4 km/h (1 Bft) W-NW 0,0 C 5,7 C 8,3 km/h (2 Bft)
27.02.2016 14:00 6,8 C 61 % 1005,3 hPa 0,0 l/m 3,7 km/h (1 Bft) W-NW -0,1 C 6,8 C 10,1 km/h (2 Bft)
27.02.2016 15:00 6,8 C 61 % 1005,6 hPa 0,0 l/m 4,0 km/h (1 Bft) W-NW -0,2 C 6,7 C 9,2 km/h (2 Bft)
27.02.2016 16:00 6,1 C 66 % 1005,8 hPa 0,0 l/m 3,2 km/h (1 Bft) W-NW 0,2 C 6,1 C 8,9 km/h (2 Bft)
27.02.2016 17:00 4,5 C 73 % 1006,0 hPa 0,0 l/m 2,0 km/h (1 Bft) W-NW 0,1 C 4,5 C 5,8 km/h (2 Bft)
27.02.2016 18:00 2,4 C 82 % 1006,3 hPa 0,0 l/m 0,7 km/h (0 Bft) W -0,4 C 2,4 C 2,3 km/h (1 Bft)
27.02.2016 19:00 -0,2 C 90 % 1007,0 hPa 0,0 l/m 0,2 km/h (0 Bft) W -1,6 C -0,2 C 1,7 km/h (1 Bft)
27.02.2016 20:00 -0,9 C 92 % 1007,1 hPa 0,0 l/m 0,2 km/h (0 Bft) W -2,0 C -0,9 C 1,6 km/h (1 Bft)
27.02.2016 21:00 -0,9 C 92 % 1007,1 hPa 0,0 l/m 0,6 km/h (0 Bft) NW -2,0 C -0,9 C 2,0 km/h (1 Bft)
27.02.2016 22:00 -0,9 C 92 % 1007,3 hPa 0,0 l/m 0,6 km/h (0 Bft) W -2,2 C -0,9 C 3,1 km/h (1 Bft)
27.02.2016 23:00 -1,1 C 92 % 1007,1 hPa 0,0 l/m 0,4 km/h (0 Bft) W -2,3 C -1,1 C 2,4 km/h (1 Bft)
28.02.2016 00:00 -1,3 C 92 % 1007,0 hPa 0,0 l/m 0,5 km/h (0 Bft) W-SW -2,5 C -1,3 C 2,4 km/h (1 Bft)
28.02.2016 01:00 -0,9 C 90 % 1006,7 hPa 0,0 l/m 1,8 km/h (1 Bft) W-NW -2,4 C -0,9 C 5,6 km/h (2 Bft)
28.02.2016 02:00 -0,6 C 87 % 1006,5 hPa 0,0 l/m 2,1 km/h (1 Bft) W-NW -2,5 C -0,6 C 5,5 km/h (2 Bft)
28.02.2016 03:00 -0,7 C 87 % 1006,4 hPa 0,0 l/m 2,7 km/h (1 Bft) W-NW -2,6 C -0,7 C 5,9 km/h (2 Bft)
28.02.2016 04:00 -0,7 C 86 % 1006,2 hPa 0,0 l/m 3,6 km/h (1 Bft) W -2,8 C -0,7 C 10,3 km/h (2 Bft)
28.02.2016 05:00 -1,1 C 87 % 1006,1 hPa 0,0 l/m 2,8 km/h (1 Bft) W-NW -3,0 C -1,1 C 7,2 km/h (2 Bft)
28.02.2016 06:00 -1,3 C 88 % 1006,4 hPa 0,0 l/m 2,9 km/h (1 Bft) W -3,0 C -1,3 C 7,1 km/h (2 Bft)
28.02.2016 07:00 -1,2 C 87 % 1006,4 hPa 0,0 l/m 3,8 km/h (1 Bft) NW -3,0 C -1,2 C 10,7 km/h (2 Bft)
28.02.2016 08:00 -0,9 C 86 % 1007,0 hPa 0,0 l/m 4,5 km/h (1 Bft) NW -3,0 C -1,0 C 11,2 km/h (2 Bft)
28.02.2016 09:00 -0,5 C 84 % 1007,4 hPa 0,0 l/m 5,6 km/h (2 Bft) W -2,8 C -0,7 C 13,3 km/h (3 Bft)
28.02.2016 10:00 0,4 C 82 % 1007,6 hPa 0,0 l/m 4,2 km/h (1 Bft) W-NW -2,3 C 0,4 C 11,8 km/h (2 Bft)
28.02.2016 11:00 0,9 C 81 % 1008,3 hPa 0,0 l/m 5,2 km/h (1 Bft) W-NW -2,0 C 0,9 C 13,5 km/h (3 Bft)
28.02.2016 12:00 1,2 C 80 % 1009,0 hPa 0,0 l/m 3,9 km/h (1 Bft) W -1,8 C 1,2 C 9,4 km/h (2 Bft)
28.02.2016 13:00 2,1 C 78 % 1009,3 hPa 0,0 l/m 3,8 km/h (1 Bft) S-SW -1,3 C 2,1 C 10,7 km/h (2 Bft)
28.02.2016 14:00 2,5 C 77 % 1010,0 hPa 0,0 l/m 3,8 km/h (1 Bft) W-NW -1,1 C 2,5 C 10,1 km/h (2 Bft)
28.02.2016 15:00 2,1 C 78 % 1010,5 hPa 0,0 l/m 4,0 km/h (1 Bft) W-NW -1,4 C 2,0 C 9,7 km/h (2 Bft)
28.02.2016 16:00 1,8 C 80 % 1011,0 hPa 0,0 l/m 3,8 km/h (1 Bft) NW -1,4 C 1,8 C 10,3 km/h (2 Bft)
28.02.2016 17:00 1,5 C 81 % 1011,6 hPa 0,0 l/m 2,9 km/h (1 Bft) NW -1,4 C 1,5 C 7,0 km/h (2 Bft)
28.02.2016 18:00 1,3 C 82 % 1012,2 hPa 0,0 l/m 3,5 km/h (1 Bft) W-NW -1,4 C 1,3 C 7,4 km/h (2 Bft)
28.02.2016 19:00 1,3 C 83 % 1012,6 hPa 0,0 l/m 4,3 km/h (1 Bft) N-NW -1,2 C 1,3 C 10,9 km/h (2 Bft)
28.02.2016 20:00 1,3 C 84 % 1012,8 hPa 0,0 l/m 4,2 km/h (1 Bft) W-NW -1,2 C 1,3 C 11,5 km/h (2 Bft)
28.02.2016 21:00 1,2 C 85 % 1012,8 hPa 0,0 l/m 4,7 km/h (1 Bft) W-NW -1,1 C 1,1 C 12,1 km/h (2 Bft)
28.02.2016 22:00 0,9 C 86 % 1012,4 hPa 0,0 l/m 4,2 km/h (1 Bft) W-NW -1,2 C 0,9 C 11,5 km/h (2 Bft)
28.02.2016 23:00 0,5 C 87 % 1012,4 hPa 0,0 l/m 5,1 km/h (1 Bft) NW -1,5 C 0,5 C 13,4 km/h (3 Bft)
Min-Datum _ 27.02.16 22.02.16 27.02.16 - 28.02.16 - 27.02.16 27.02.16 28.02.16
_ Min-Zeit 07:20 15:20 14:35 - 17:58 - 07:20 07:20 00:05
Minimum _ -7,9 C 53 % 1005,2 hPa - 0,0 km/h (0 Bft) - -8,8 C -7,9 C 0,0 km/h (0 Bft)
Max-Datum _ 22.02.16 26.02.16 24.02.16 23.02.16 23.02.16 - 22.02.16 22.02.16 23.02.16
_ Max-Zeit 14:45 08:00 09:40 06:25 06:01 - 05:30 14:45 03:30
Maximum _ 12,9 C 97 % 1020,5 hPa 3,0 l/m 16,1 km/h
NO (3 Bft)
- 7,1 C 12,9 C 35,4 km/h
O-NO (5 Bft)
Durchschnitt _ 1,9 C 86 % 1011,9 hPa #31,5 l/m 2,9 km/h (1 Bft) O-NO -0,3 C 1,7 C 6,9 km/h (2 Bft)